Time,TemperatureF,DewpointF,PressureIn,WindDirection,WindDirectionDegrees,WindSpeedMPH,WindSpeedGustMPH,Humidity,HourlyPrecipIn,Conditions,Clouds,dailyrainin,SolarRadiationWatts/m^2,SoftwareType,DateUTC
2013-08-04 00:00:00,61.6,55.4,30.03,WNW,302,1.0,2.0,80,0.00,,,0.00,0,Wunderground v.1.15,2013-08-04 04:00:00,
2013-08-04 00:05:00,61.4,55.2,30.04,WNW,302,1.0,2.0,80,0.00,,,0.00,0,Wunderground v.1.15,2013-08-04 04:05:00,
2013-08-04 00:10:00,61.2,55.0,30.04,WNW,302,1.0,2.0,80,0.00,,,0.00,0,Wunderground v.1.15,2013-08-04 04:10:00,
2013-08-04 00:14:00,61.1,55.2,30.04,WNW,302,2.0,2.0,81,0.00,,,0.00,0,Wunderground v.1.15,2013-08-04 04:14:00,
2013-08-04 00:25:00,60.9,55.0,30.04,WNW,302,2.0,2.0,81,0.00,,,0.00,0,Wunderground v.1.15,2013-08-04 04:25:00,
2013-08-04 00:30:00,60.8,54.9,30.04,WNW,302,1.0,1.0,81,0.00,,,0.00,0,Wunderground v.1.15,2013-08-04 04:30:00,
2013-08-04 00:40:00,60.8,54.9,30.05,WNW,302,1.0,2.0,81,0.00,,,0.00,0,Wunderground v.1.15,2013-08-04 04:40:00,
2013-08-04 00:50:00,60.6,55.1,30.05,WNW,302,1.0,1.0,82,0.00,,,0.00,0,Wunderground v.1.15,2013-08-04 04:50:00,
2013-08-04 01:00:00,60.4,55.2,30.05,WNW,302,1.0,1.0,83,0.00,,,0.00,0,Wunderground v.1.15,2013-08-04 05:00:00,
2013-08-04 01:10:00,60.2,55.0,30.05,WNW,302,1.0,1.0,83,0.00,,,0.00,0,Wunderground v.1.15,2013-08-04 05:10:00,
2013-08-04 01:19:00,59.9,55.1,30.05,WNW,302,1.0,1.0,84,0.00,,,0.00,0,Wunderground v.1.15,2013-08-04 05:19:00,
2013-08-04 01:25:00,59.8,55.0,30.05,WNW,302,1.0,1.0,84,0.00,,,0.00,0,Wunderground v.1.15,2013-08-04 05:25:00,
2013-08-04 01:35:00,59.8,55.0,30.05,WNW,302,2.0,4.0,84,0.00,,,0.00,0,Wunderground v.1.15,2013-08-04 05:35:00,
2013-08-04 01:40:00,59.9,55.1,30.05,NW,304,3.0,4.0,84,0.00,,,0.00,0,Wunderground v.1.15,2013-08-04 05:40:00,
2013-08-04 01:50:00,60.1,54.9,30.05,WNW,300,3.0,4.0,83,0.00,,,0.00,0,Wunderground v.1.15,2013-08-04 05:50:00,
2013-08-04 02:00:00,60.0,54.8,30.06,WNW,300,3.0,3.0,83,0.00,,,0.00,0,Wunderground v.1.15,2013-08-04 06:00:00,
2013-08-04 02:09:00,59.9,54.7,30.06,WNW,297,3.0,3.0,83,0.00,,,0.00,0,Wunderground v.1.15,2013-08-04 06:09:00,
2013-08-04 02:19:00,59.7,54.9,30.06,WNW,297,0.0,2.0,84,0.00,,,0.00,0,Wunderground v.1.15,2013-08-04 06:19:00,
2013-08-04 02:25:00,59.6,54.8,30.06,WNW,298,1.0,2.0,84,0.00,,,0.00,0,Wunderground v.1.15,2013-08-04 06:25:00,
2013-08-04 02:35:00,59.4,54.6,30.06,WNW,298,1.0,1.0,84,0.00,,,0.00,0,Wunderground v.1.15,2013-08-04 06:35:00,
2013-08-04 02:45:00,59.2,54.7,30.06,WNW,302,2.0,4.0,85,0.00,,,0.00,0,Wunderground v.1.15,2013-08-04 06:45:00,
2013-08-04 02:55:00,59.0,54.5,30.07,WNW,299,2.0,4.0,85,0.00,,,0.00,0,Wunderground v.1.15,2013-08-04 06:55:00,
2013-08-04 03:05:00,58.9,54.4,30.07,WNW,294,3.0,4.0,85,0.00,,,0.00,0,Wunderground v.1.15,2013-08-04 07:05:00,
2013-08-04 03:14:00,58.9,54.4,30.07,WNW,297,2.0,5.0,85,0.00,,,0.00,0,Wunderground v.1.15,2013-08-04 07:14:00,
2013-08-04 03:25:00,58.8,54.6,30.08,WNW,299,2.0,4.0,86,0.00,,,0.00,0,Wunderground v.1.15,2013-08-04 07:25:00,
2013-08-04 03:35:00,58.8,54.6,30.08,WNW,300,2.0,5.0,86,0.00,,,0.00,0,Wunderground v.1.15,2013-08-04 07:35:00,
2013-08-04 03:45:00,58.6,54.4,30.08,WNW,301,3.0,4.0,86,0.00,,,0.00,0,Wunderground v.1.15,2013-08-04 07:45:00,
2013-08-04 03:55:00,58.5,54.3,30.08,WNW,301,2.0,4.0,86,0.00,,,0.00,0,Wunderground v.1.15,2013-08-04 07:55:00,
2013-08-04 04:05:00,58.4,54.2,30.09,WNW,295,2.0,2.0,86,0.00,,,0.00,0,Wunderground v.1.15,2013-08-04 08:05:00,
2013-08-04 04:15:00,58.3,54.4,30.09,WNW,299,2.0,2.0,87,0.00,,,0.00,0,Wunderground v.1.15,2013-08-04 08:15:00,
2013-08-04 04:25:00,58.2,54.3,30.09,WNW,295,1.0,1.0,87,0.00,,,0.00,0,Wunderground v.1.15,2013-08-04 08:25:00,
2013-08-04 04:34:00,58.1,54.2,30.10,NW,309,1.0,1.0,87,0.00,,,0.00,0,Wunderground v.1.15,2013-08-04 08:34:00,
2013-08-04 04:39:00,58.1,54.2,30.10,WNW,296,2.0,2.0,87,0.00,,,0.00,0,Wunderground v.1.15,2013-08-04 08:39:00,
2013-08-04 04:50:00,57.9,54.1,30.10,WNW,296,1.0,1.0,87,0.00,,,0.00,0,Wunderground v.1.15,2013-08-04 08:50:00,
2013-08-04 04:55:00,57.8,54.3,30.10,WNW,296,1.0,1.0,88,0.00,,,0.00,0,Wunderground v.1.15,2013-08-04 08:55:00,
2013-08-04 05:05:00,57.7,54.2,30.10,WNW,299,1.0,1.0,88,0.00,,,0.00,0,Wunderground v.1.15,2013-08-04 09:05:00,
2013-08-04 05:15:00,57.6,54.1,30.09,WNW,299,1.0,1.0,88,0.00,,,0.00,0,Wunderground v.1.15,2013-08-04 09:15:00,
2013-08-04 05:24:00,57.5,54.0,30.09,WNW,299,0.0,1.0,88,0.00,,,0.00,0,Wunderground v.1.15,2013-08-04 09:24:00,
2013-08-04 05:35:00,57.2,53.7,30.09,WNW,299,0.0,2.0,88,0.00,,,0.00,0,Wunderground v.1.15,2013-08-04 09:35:00,
2013-08-04 05:45:00,56.9,53.7,30.09,WNW,299,0.0,0.0,89,0.00,,,0.00,0,Wunderground v.1.15,2013-08-04 09:45:00,
2013-08-04 05:55:00,56.7,53.5,30.09,WNW,299,0.0,1.0,89,0.00,,,0.00,0,Wunderground v.1.15,2013-08-04 09:55:00,
2013-08-04 06:05:00,56.5,53.6,30.10,WNW,299,0.0,1.0,90,0.00,,,0.00,0,Wunderground v.1.15,2013-08-04 10:05:00,
2013-08-04 06:15:00,56.4,53.5,30.10,WNW,299,0.0,4.0,90,0.00,,,0.00,0,Wunderground v.1.15,2013-08-04 10:15:00,
2013-08-04 06:25:00,56.2,53.3,30.10,WNW,299,1.0,1.0,90,0.00,,,0.00,0,Wunderground v.1.15,2013-08-04 10:25:00,
2013-08-04 06:35:00,56.1,53.5,30.10,WNW,299,1.0,1.0,91,0.00,,,0.00,0,Wunderground v.1.15,2013-08-04 10:35:00,
2013-08-04 06:45:00,56.0,53.4,30.10,WNW,299,1.0,1.0,91,0.00,,,0.00,9,Wunderground v.1.15,2013-08-04 10:45:00,
2013-08-04 06:55:00,56.0,53.4,30.11,WNW,299,0.0,1.0,91,0.00,,,0.00,14,Wunderground v.1.15,2013-08-04 10:55:00,
2013-08-04 07:05:00,56.1,53.5,30.11,WNW,299,0.0,1.0,91,0.00,,,0.00,28,Wunderground v.1.15,2013-08-04 11:05:00,
2013-08-04 07:14:00,56.1,53.8,30.12,WNW,299,0.0,0.0,92,0.00,,,0.00,47,Wunderground v.1.15,2013-08-04 11:14:00,
2013-08-04 07:25:00,56.4,54.1,30.12,WNW,300,0.0,0.0,92,0.00,,,0.00,70,Wunderground v.1.15,2013-08-04 11:25:00,
2013-08-04 07:34:00,56.8,54.5,30.13,NW,317,2.0,2.0,92,0.00,,,0.00,95,Wunderground v.1.15,2013-08-04 11:34:00,
2013-08-04 07:45:00,57.4,54.8,30.13,NW,309,2.0,5.0,91,0.00,,,0.00,128,Wunderground v.1.15,2013-08-04 11:45:00,
2013-08-04 07:55:00,57.9,55.0,30.14,NNW,343,4.0,6.0,90,0.00,,,0.00,162,Wunderground v.1.15,2013-08-04 11:55:00,
2013-08-04 08:05:00,58.5,55.6,30.14,NNW,330,3.0,5.0,90,0.00,,,0.00,199,Wunderground v.1.15,2013-08-04 12:05:00,
2013-08-04 08:15:00,59.0,55.8,30.14,NNW,336,3.0,4.0,89,0.00,,,0.00,232,Wunderground v.1.15,2013-08-04 12:15:00,
2013-08-04 08:25:00,59.8,56.6,30.14,NNW,336,2.0,3.0,89,0.00,,,0.00,260,Wunderground v.1.15,2013-08-04 12:25:00,
2013-08-04 08:35:00,60.7,57.1,30.14,North,355,2.0,2.0,88,0.00,,,0.00,292,Wunderground v.1.15,2013-08-04 12:35:00,
2013-08-04 08:40:00,61.2,57.0,30.14,North,5,2.0,2.0,86,0.00,,,0.00,308,Wunderground v.1.15,2013-08-04 12:40:00,
2013-08-04 08:50:00,62.2,57.6,30.14,North,5,2.0,2.0,85,0.00,,,0.00,339,Wunderground v.1.15,2013-08-04 12:50:00,
2013-08-04 08:59:00,63.0,57.8,30.14,ENE,61,2.0,2.0,83,0.00,,,0.00,367,Wunderground v.1.15,2013-08-04 12:59:00,
2013-08-04 09:10:00,64.0,58.4,30.15,NE,49,2.0,3.0,82,0.00,,,0.00,397,Wunderground v.1.15,2013-08-04 13:10:00,
2013-08-04 09:15:00,64.6,57.9,30.15,North,5,2.0,3.0,79,0.00,,,0.00,413,Wunderground v.1.15,2013-08-04 13:15:00,
2013-08-04 09:25:00,65.1,58.1,30.14,North,5,2.0,2.0,78,0.00,,,0.00,443,Wunderground v.1.15,2013-08-04 13:25:00,
2013-08-04 09:34:00,65.9,58.5,30.14,North,355,2.0,2.0,77,0.00,,,0.00,471,Wunderground v.1.15,2013-08-04 13:34:00,
2013-08-04 09:45:00,66.5,59.1,30.14,North,351,2.0,2.0,77,0.00,,,0.00,501,Wunderground v.1.15,2013-08-04 13:45:00,
2013-08-04 09:55:00,66.9,58.3,30.15,NNW,347,2.0,4.0,74,0.00,,,0.00,529,Wunderground v.1.15,2013-08-04 13:55:00,
2013-08-04 10:05:00,66.9,57.2,30.15,NNW,340,3.0,3.0,71,0.00,,,0.00,557,Wunderground v.1.15,2013-08-04 14:05:00,
2013-08-04 10:15:00,67.0,57.3,30.15,North,360,3.0,4.0,71,0.00,,,0.00,580,Wunderground v.1.15,2013-08-04 14:15:00,
2013-08-04 10:25:00,68.0,57.4,30.15,ENE,59,1.0,2.0,69,0.00,,,0.00,608,Wunderground v.1.15,2013-08-04 14:25:00,
2013-08-04 10:35:00,68.6,57.6,30.16,North,355,2.0,2.0,68,0.00,,,0.00,635,Wunderground v.1.15,2013-08-04 14:35:00,
2013-08-04 10:40:00,68.9,57.9,30.16,ENE,67,2.0,2.0,68,0.00,,,0.00,645,Wunderground v.1.15,2013-08-04 14:40:00,
2013-08-04 10:49:00,69.2,57.8,30.16,North,349,1.0,2.0,67,0.00,,,0.00,668,Wunderground v.1.15,2013-08-04 14:49:00,
2013-08-04 10:59:00,69.1,57.7,30.16,NW,308,3.0,3.0,67,0.00,,,0.00,693,Wunderground v.1.15,2013-08-04 14:59:00,
2013-08-04 11:10:00,69.0,56.7,30.16,NNW,333,3.0,3.0,65,0.00,,,0.00,712,Wunderground v.1.15,2013-08-04 15:10:00,
2013-08-04 11:15:00,69.3,57.9,30.16,NW,311,3.0,7.0,67,0.00,,,0.00,724,Wunderground v.1.15,2013-08-04 15:15:00,
2013-08-04 11:25:00,68.9,57.1,30.16,NW,305,4.0,4.0,66,0.00,,,0.00,740,Wunderground v.1.15,2013-08-04 15:25:00,
2013-08-04 11:35:00,69.5,58.1,30.16,North,5,2.0,2.0,67,0.00,,,0.00,763,Wunderground v.1.15,2013-08-04 15:35:00,
2013-08-04 11:45:00,69.8,58.8,30.16,NNE,18,4.0,5.0,68,0.00,,,0.00,780,Wunderground v.1.15,2013-08-04 15:45:00,
2013-08-04 11:55:00,70.5,57.7,30.15,WNW,296,4.0,5.0,64,0.00,,,0.00,798,Wunderground v.1.15,2013-08-04 15:55:00,
2013-08-04 12:00:00,70.5,58.6,30.15,NW,322,4.0,4.0,66,0.00,,,0.00,809,Wunderground v.1.15,2013-08-04 16:00:00,
2013-08-04 12:10:00,70.9,58.1,30.15,NW,314,4.0,6.0,64,0.00,,,0.00,914,Wunderground v.1.15,2013-08-04 16:10:00,
2013-08-04 12:20:00,71.0,58.2,30.15,WNW,297,5.0,5.0,64,0.00,,,0.00,877,Wunderground v.1.15,2013-08-04 16:20:00,
2013-08-04 12:30:00,71.4,58.1,30.15,NW,305,6.0,7.0,63,0.00,,,0.00,889,Wunderground v.1.15,2013-08-04 16:30:00,
2013-08-04 12:40:00,71.5,59.1,30.14,NNW,336,6.0,6.0,65,0.00,,,0.00,893,Wunderground v.1.15,2013-08-04 16:40:00,
2013-08-04 12:50:00,72.1,59.2,30.14,NW,308,5.0,13.0,64,0.00,,,0.00,944,Wunderground v.1.15,2013-08-04 16:50:00,
2013-08-04 12:59:00,72.3,59.0,30.13,NNW,347,6.0,7.0,63,0.00,,,0.00,925,Wunderground v.1.15,2013-08-04 16:59:00,
2013-08-04 13:09:00,72.4,59.1,30.13,NNW,341,5.0,5.0,63,0.00,,,0.00,937,Wunderground v.1.15,2013-08-04 17:09:00,
2013-08-04 13:15:00,72.4,58.2,30.13,NW,304,5.0,12.0,61,0.00,,,0.00,993,Wunderground v.1.15,2013-08-04 17:15:00,
2013-08-04 13:25:00,72.3,58.1,30.13,NW,305,6.0,6.0,61,0.00,,,0.00,986,Wunderground v.1.15,2013-08-04 17:25:00,
2013-08-04 13:35:00,72.2,58.0,30.13,WNW,298,6.0,7.0,61,0.00,,,0.00,947,Wunderground v.1.15,2013-08-04 17:35:00,
2013-08-04 13:45:00,73.0,58.3,30.13,NE,39,5.0,6.0,60,0.00,,,0.00,1000,Wunderground v.1.15,2013-08-04 17:45:00,
2013-08-04 13:50:00,73.4,57.2,30.13,NW,325,6.0,6.0,57,0.00,,,0.00,939,Wunderground v.1.15,2013-08-04 17:50:00,
2013-08-04 14:00:00,73.9,59.1,30.13,NW,306,6.0,6.0,60,0.00,,,0.00,951,Wunderground v.1.15,2013-08-04 18:00:00,
2013-08-04 14:10:00,74.0,60.2,30.13,NNW,339,6.0,7.0,62,0.00,,,0.00,972,Wunderground v.1.15,2013-08-04 18:10:00,
2013-08-04 14:20:00,73.5,56.8,30.13,WNW,294,4.0,4.0,56,0.00,,,0.00,174,Wunderground v.1.15,2013-08-04 18:20:00,
2013-08-04 14:25:00,73.3,59.5,30.13,NW,323,3.0,4.0,62,0.00,,,0.00,954,Wunderground v.1.15,2013-08-04 18:25:00,
2013-08-04 14:30:00,73.5,57.8,30.12,NW,323,4.0,4.0,58,0.00,,,0.00,944,Wunderground v.1.15,2013-08-04 18:30:00,
2013-08-04 14:40:00,74.5,59.2,30.12,NW,321,5.0,5.0,59,0.00,,,0.00,965,Wunderground v.1.15,2013-08-04 18:40:00,
2013-08-04 14:49:00,74.6,57.4,30.12,WNW,286,6.0,6.0,55,0.00,,,0.00,933,Wunderground v.1.15,2013-08-04 18:49:00,
2013-08-04 15:00:00,74.7,56.4,30.12,NW,311,6.0,6.0,53,0.00,,,0.00,974,Wunderground v.1.15,2013-08-04 19:00:00,
2013-08-04 15:10:00,74.5,58.8,30.12,NNW,338,5.0,7.0,58,0.00,,,0.00,149,Wunderground v.1.15,2013-08-04 19:10:00,
2013-08-04 15:20:00,73.7,57.0,30.12,North,10,4.0,4.0,56,0.00,,,0.00,1009,Wunderground v.1.15,2013-08-04 19:20:00,
2013-08-04 15:29:00,73.6,56.9,30.12,NW,316,6.0,6.0,56,0.00,,,0.00,895,Wunderground v.1.15,2013-08-04 19:29:00,
2013-08-04 15:40:00,74.5,59.2,30.12,NNW,343,4.0,4.0,59,0.00,,,0.00,895,Wunderground v.1.15,2013-08-04 19:40:00,
2013-08-04 15:50:00,75.1,57.3,30.12,NNW,327,4.0,5.0,54,0.00,,,0.00,179,Wunderground v.1.15,2013-08-04 19:50:00,
2013-08-04 16:00:00,73.6,56.9,30.11,NW,321,4.0,4.0,56,0.00,,,0.00,214,Wunderground v.1.15,2013-08-04 20:00:00,
2013-08-04 16:10:00,74.2,56.5,30.11,NNW,342,4.0,6.0,54,0.00,,,0.00,863,Wunderground v.1.15,2013-08-04 20:10:00,
2013-08-04 16:20:00,74.4,56.7,30.11,NNW,342,5.0,7.0,54,0.00,,,0.00,817,Wunderground v.1.15,2013-08-04 20:20:00,
2013-08-04 16:25:00,74.2,55.4,30.11,WNW,301,6.0,7.0,52,0.00,,,0.00,202,Wunderground v.1.15,2013-08-04 20:25:00,
2013-08-04 16:35:00,74.5,58.3,30.10,NW,320,5.0,7.0,57,0.00,,,0.00,728,Wunderground v.1.15,2013-08-04 20:35:00,
2013-08-04 16:44:00,74.9,55.6,30.10,NW,320,5.0,7.0,51,0.00,,,0.00,105,Wunderground v.1.15,2013-08-04 20:44:00,
2013-08-04 16:55:00,74.5,57.3,30.10,WNW,294,5.0,6.0,55,0.00,,,0.00,666,Wunderground v.1.15,2013-08-04 20:55:00,
2013-08-04 17:05:00,75.0,55.1,30.10,WNW,297,4.0,7.0,50,0.00,,,0.00,606,Wunderground v.1.15,2013-08-04 21:05:00,
2013-08-04 17:15:00,75.5,58.2,30.10,North,11,5.0,5.0,55,0.00,,,0.00,728,Wunderground v.1.15,2013-08-04 21:15:00,
2013-08-04 17:25:00,74.8,56.5,30.10,North,355,5.0,6.0,53,0.00,,,0.00,701,Wunderground v.1.15,2013-08-04 21:25:00,
2013-08-04 17:30:00,74.8,55.5,30.10,NNW,338,5.0,5.0,51,0.00,,,0.00,278,Wunderground v.1.15,2013-08-04 21:30:00,
2013-08-04 17:40:00,73.9,56.2,30.10,NNW,336,4.0,4.0,54,0.00,,,0.00,169,Wunderground v.1.15,2013-08-04 21:40:00,
2013-08-04 17:45:00,73.8,56.1,30.10,North,360,4.0,4.0,54,0.00,,,0.00,577,Wunderground v.1.15,2013-08-04 21:45:00,
2013-08-04 17:50:00,74.4,55.6,30.10,NNW,333,4.0,6.0,52,0.00,,,0.00,573,Wunderground v.1.15,2013-08-04 21:50:00,
2013-08-04 18:05:00,74.7,56.4,30.10,WNW,302,2.0,2.0,53,0.00,,,0.00,512,Wunderground v.1.15,2013-08-04 22:05:00,
2013-08-04 18:15:00,74.8,56.5,30.10,NNW,344,5.0,5.0,53,0.00,,,0.00,438,Wunderground v.1.15,2013-08-04 22:15:00,
2013-08-04 18:25:00,75.4,58.1,30.10,NNE,14,2.0,4.0,55,0.00,,,0.00,452,Wunderground v.1.15,2013-08-04 22:25:00,
2013-08-04 18:30:00,75.7,57.4,30.10,NNE,22,1.0,4.0,53,0.00,,,0.00,450,Wunderground v.1.15,2013-08-04 22:30:00,
2013-08-04 18:40:00,75.8,58.0,30.10,NNW,345,3.0,5.0,54,0.00,,,0.00,436,Wunderground v.1.15,2013-08-04 22:40:00,
2013-08-04 18:50:00,75.9,55.9,30.10,NW,313,2.0,4.0,50,0.00,,,0.00,378,Wunderground v.1.15,2013-08-04 22:50:00,
2013-08-04 19:00:00,74.9,55.6,30.10,NW,304,4.0,4.0,51,0.00,,,0.00,84,Wunderground v.1.15,2013-08-04 23:00:00,
2013-08-04 19:10:00,73.9,55.7,30.10,WNW,296,1.0,1.0,53,0.00,,,0.00,299,Wunderground v.1.15,2013-08-04 23:10:00,
2013-08-04 19:20:00,74.4,55.1,30.10,NNW,333,3.0,3.0,51,0.00,,,0.00,250,Wunderground v.1.15,2013-08-04 23:20:00,
2013-08-04 19:30:00,74.0,55.8,30.10,NNW,341,3.0,3.0,53,0.00,,,0.00,105,Wunderground v.1.15,2013-08-04 23:30:00,
2013-08-04 19:40:00,73.1,56.5,30.10,NNW,342,1.0,1.0,56,0.00,,,0.00,72,Wunderground v.1.15,2013-08-04 23:40:00,
2013-08-04 19:50:00,71.6,57.4,30.10,NNW,342,1.0,1.0,61,0.00,,,0.00,69,Wunderground v.1.15,2013-08-04 23:50:00,
2013-08-04 20:00:00,70.6,57.8,30.10,NNW,342,1.0,1.0,64,0.00,,,0.00,53,Wunderground v.1.15,2013-08-05 00:00:00,
2013-08-04 20:04:00,70.2,57.9,30.10,NNW,342,0.0,1.0,65,0.00,,,0.00,54,Wunderground v.1.15,2013-08-05 00:04:00,
2013-08-04 20:15:00,69.5,58.1,30.10,NNW,342,0.0,0.0,67,0.00,,,0.00,30,Wunderground v.1.15,2013-08-05 00:15:00,
2013-08-04 20:20:00,69.3,57.0,30.10,NNW,342,0.0,0.0,65,0.00,,,0.00,26,Wunderground v.1.15,2013-08-05 00:20:00,
2013-08-04 20:30:00,68.7,57.7,30.10,NNW,342,0.0,0.0,68,0.00,,,0.00,19,Wunderground v.1.15,2013-08-05 00:30:00,
2013-08-04 20:40:00,68.2,57.6,30.10,NNW,342,0.0,0.0,69,0.00,,,0.00,7,Wunderground v.1.15,2013-08-05 00:40:00,
2013-08-04 20:49:00,67.8,58.8,30.10,NNW,342,0.0,0.0,73,0.00,,,0.00,5,Wunderground v.1.15,2013-08-05 00:49:00,
2013-08-04 21:00:00,67.2,57.9,30.10,NNW,342,0.0,0.0,72,0.00,,,0.00,0,Wunderground v.1.15,2013-08-05 01:00:00,
2013-08-04 21:10:00,66.8,59.0,30.10,NNW,342,0.0,0.0,76,0.00,,,0.00,0,Wunderground v.1.15,2013-08-05 01:10:00,
2013-08-04 21:20:00,66.4,59.7,30.10,NNW,342,0.0,0.0,79,0.00,,,0.00,0,Wunderground v.1.15,2013-08-05 01:20:00,
2013-08-04 21:30:00,65.7,58.7,30.10,NNW,342,0.0,0.0,78,0.00,,,0.00,0,Wunderground v.1.15,2013-08-05 01:30:00,
2013-08-04 21:40:00,65.1,58.4,30.10,NNW,342,0.0,0.0,79,0.00,,,0.00,0,Wunderground v.1.15,2013-08-05 01:40:00,
2013-08-04 21:50:00,64.7,58.4,30.11,NNW,342,0.0,0.0,80,0.00,,,0.00,0,Wunderground v.1.15,2013-08-05 01:50:00,
2013-08-04 22:00:00,64.2,57.2,30.11,NNW,342,0.0,0.0,78,0.00,,,0.00,0,Wunderground v.1.15,2013-08-05 02:00:00,
2013-08-04 22:09:00,63.8,57.5,30.10,NNW,342,0.0,0.0,80,0.00,,,0.00,0,Wunderground v.1.15,2013-08-05 02:09:00,
2013-08-04 22:20:00,63.5,58.6,30.11,NNW,342,0.0,0.0,84,0.00,,,0.00,0,Wunderground v.1.15,2013-08-05 02:20:00,
2013-08-04 22:30:00,63.0,58.4,30.10,NNW,342,0.0,0.0,85,0.00,,,0.00,0,Wunderground v.1.15,2013-08-05 02:30:00,
2013-08-04 22:39:00,62.1,57.2,30.10,NNW,342,0.0,0.0,84,0.00,,,0.00,0,Wunderground v.1.15,2013-08-05 02:39:00,
2013-08-04 22:50:00,61.4,56.8,30.10,NNW,342,0.0,0.0,85,0.00,,,0.00,0,Wunderground v.1.15,2013-08-05 02:50:00,
2013-08-04 22:55:00,60.9,57.0,30.10,NNW,342,0.0,0.0,87,0.00,,,0.00,0,Wunderground v.1.15,2013-08-05 02:55:00,
2013-08-04 23:05:00,60.6,57.0,30.10,NNW,342,0.0,0.0,88,0.00,,,0.00,0,Wunderground v.1.15,2013-08-05 03:05:00,
2013-08-04 23:15:00,60.6,57.3,30.10,NNW,342,0.0,0.0,89,0.00,,,0.00,0,Wunderground v.1.15,2013-08-05 03:15:00,
2013-08-04 23:24:00,60.5,57.6,30.10,NNW,342,0.0,0.0,90,0.00,,,0.00,0,Wunderground v.1.15,2013-08-05 03:24:00,
2013-08-04 23:29:00,60.3,57.0,30.10,NNW,342,0.0,0.0,89,0.00,,,0.00,0,Wunderground v.1.15,2013-08-05 03:29:00,
2013-08-04 23:35:00,60.1,57.2,30.10,NNW,342,0.0,0.0,90,0.00,,,0.00,0,Wunderground v.1.15,2013-08-05 03:35:00,
2013-08-04 23:45:00,59.7,56.8,30.10,NNW,342,0.0,0.0,90,0.00,,,0.00,0,Wunderground v.1.15,2013-08-05 03:45:00,
2013-08-04 23:55:00,59.6,56.7,30.10,NNW,342,0.0,0.0,90,0.00,,,0.00,0,Wunderground v.1.15,2013-08-05 03:55:00,